Time;durP1;ratioP1;P1;durP2;ratioP2;P2;SDS_P1;SDS_P2;PMS_P1;PMS_P2;Temp;Humidity;BMP_temperature;BMP_pressure;BME280_temperature;BME280_humidity;BME280_pressure;Samples;Min_cycle;Max_cycle;Signal;HPM_P1;HPM_P2
2022/06/01 00:02:15;;;;;;;14.77;13.13;;;;;;;11.42;73.98;101258.50;5064479;28;20032;-88
2022/06/01 00:04:40;;;;;;;13.95;12.30;;;;;;;11.22;74.38;101267.16;5086706;28;20305;-87
2022/06/01 00:07:06;;;;;;;13.70;12.32;;;;;;;11.10;74.53;101258.81;5070903;28;20399;-88
2022/06/01 00:09:31;;;;;;;13.35;12.02;;;;;;;11.12;74.68;101262.25;5070168;28;20035;-87
2022/06/01 00:11:56;;;;;;;12.88;11.57;;;;;;;11.15;74.36;101265.66;5070636;28;20043;-88
2022/06/01 00:14:22;;;;;;;11.95;10.60;;;;;;;11.20;73.67;101254.91;5068047;28;20027;-87
2022/06/01 00:16:47;;;;;;;15.30;13.70;;;;;;;11.22;74.23;101263.63;5069118;28;20384;-88
2022/06/01 00:19:13;;;;;;;13.65;12.27;;;;;;;11.13;74.55;101269.25;5070629;28;20023;-87
2022/06/01 00:22:11;;;;;;;16.40;13.50;;;;;;;11.11;74.61;101266.69;5083999;28;20032;-87
2022/06/01 00:24:24;;;;;;;12.95;10.93;;;;;;;11.15;74.24;101270.94;5082940;28;20035;-87
2022/06/01 00:26:50;;;;;;;14.45;12.95;;;;;;;11.20;74.55;101276.94;5087289;28;20024;-87
2022/06/01 00:29:15;;;;;;;15.55;13.35;;;;;;;11.23;73.62;101268.00;5088625;28;20084;-87
2022/06/01 00:31:40;;;;;;;16.33;13.93;;;;;;;11.21;74.61;101269.84;5084183;28;20106;-87
2022/06/01 00:34:06;;;;;;;15.63;13.93;;;;;;;11.15;74.64;101272.75;5087890;28;20386;-87
2022/06/01 00:36:32;;;;;;;16.25;14.45;;;;;;;11.07;74.73;101264.19;5065940;28;20028;-88
2022/06/01 00:38:58;;;;;;;17.58;14.77;;;;;;;11.10;74.52;101267.59;5083959;28;20722;-87
2022/06/01 00:41:23;;;;;;;19.00;15.80;;;;;;;11.04;74.77;101273.09;5068005;28;20031;-87
2022/06/01 00:43:49;;;;;;;18.73;16.05;;;;;;;11.10;75.06;101274.69;5083372;28;20016;-88
2022/06/01 00:46:14;;;;;;;17.00;14.55;;;;;;;11.11;74.65;101261.38;5083617;28;20030;-88
2022/06/01 00:48:45;;;;;;;15.43;13.75;;;;;;;11.20;75.12;101263.72;5069140;28;20024;-88
2022/06/01 00:51:14;;;;;;;16.73;14.93;;;;;;;11.23;75.10;101266.22;5065298;28;20024;-87
2022/06/01 00:53:43;;;;;;;17.35;15.23;;;;;;;11.28;74.82;101262.56;5059118;28;20027;-87
2022/06/01 00:56:14;;;;;;;19.73;15.27;;;;;;;11.29;75.05;101269.59;5064523;28;20534;-88
2022/06/01 00:58:42;;;;;;;17.48;15.38;;;;;;;11.28;73.18;101267.84;5063256;28;20031;-88
2022/06/01 01:01:13;;;;;;;18.23;16.25;;;;;;;11.28;74.08;101262.56;5068382;28;20024;-88
2022/06/01 01:03:42;;;;;;;18.25;15.85;;;;;;;11.30;74.21;101272.19;5084872;28;20286;-88
2022/06/01 01:06:18;;;;;;;19.35;16.10;;;;;;;11.32;74.64;101258.88;5084082;28;20501;-87
2022/06/01 01:08:44;;;;;;;18.40;15.20;;;;;;;11.33;74.18;101264.13;5079415;28;20096;-87
2022/06/01 01:11:11;;;;;;;18.15;15.48;;;;;;;11.33;74.36;101271.19;5070885;28;20027;-87
2022/06/01 01:13:40;;;;;;;22.08;15.50;;;;;;;11.29;75.02;101264.31;5066789;28;20161;-88
2022/06/01 01:16:06;;;;;;;18.48;15.73;;;;;;;11.19;75.12;101264.63;5066144;28;20024;-88
2022/06/01 01:18:35;;;;;;;20.05;16.20;;;;;;;11.18;74.71;101257.59;5067768;28;20093;-88
2022/06/01 01:21:20;;;;;;;19.65;16.30;;;;;;;11.31;74.99;101270.38;5068936;28;20502;-88
2022/06/01 01:23:54;;;;;;;22.02;17.80;;;;;;;11.34;74.56;101260.56;5083790;28;20051;-88
2022/06/01 01:26:22;;;;;;;22.88;19.52;;;;;;;11.35;75.52;101258.78;5066845;28;20410;-87
2022/06/01 01:28:47;;;;;;;23.60;19.23;;;;;;;11.32;75.49;101253.59;5080282;28;20796;-87
2022/06/01 01:31:21;;;;;;;26.55;19.90;;;;;;;11.42;75.46;101265.56;5077472;28;20035;-87
2022/06/01 01:33:49;;;;;;;27.17;21.50;;;;;;;11.38;75.60;101253.38;5068624;28;20028;-88
2022/06/01 01:36:17;;;;;;;25.60;19.95;;;;;;;11.34;75.38;101249.97;5079413;28;20385;-88
2022/06/01 01:38:55;;;;;;;27.88;21.10;;;;;;;11.31;75.82;101255.38;5085802;28;20031;-87
2022/06/01 01:41:43;;;;;;;26.33;20.40;;;;;;;11.39;75.03;101244.50;5066575;28;20024;-87
2022/06/01 01:44:30;;;;;;;24.33;20.08;;;;;;;11.44;75.06;101253.13;5068734;28;20074;-88
2022/06/01 01:46:58;;;;;;;27.20;20.85;;;;;;;11.39;75.61;101255.09;5066677;28;20068;-87
2022/06/01 01:49:27;;;;;;;28.38;21.17;;;;;;;11.36;75.60;101247.25;5067236;28;20051;-87
2022/06/01 01:51:58;;;;;;;26.40;20.67;;;;;;;11.35;75.09;101251.69;5085837;28;20044;-87
2022/06/01 01:54:33;;;;;;;26.02;20.83;;;;;;;11.42;75.33;101257.63;5063883;28;20026;-87
2022/06/01 01:57:17;;;;;;;28.17;20.60;;;;;;;11.47;74.98;101263.59;5081941;28;20031;-87
2022/06/01 02:00:06;;;;;;;27.13;21.63;;;;;;;11.50;75.53;101260.84;5066905;28;20039;-87
2022/06/01 02:02:48;;;;;;;26.92;21.52;;;;;;;11.57;74.66;101270.31;5064459;28;20024;-88
2022/06/01 02:08:23;;;;;;;26.67;20.42;;;;;;;11.62;74.72;101273.63;5081022;28;19919;-88
2022/06/01 02:13:34;;;;;;;30.08;22.10;;;;;;;11.55;75.20;101261.53;5085475;28;20118;-87
2022/06/01 02:16:01;;;;;;;27.08;20.73;;;;;;;11.51;74.85;101262.56;5062387;28;20028;-87
2022/06/01 02:18:31;;;;;;;29.15;21.40;;;;;;;11.51;74.92;101254.63;5077847;28;20027;-88
2022/06/01 02:21:08;;;;;;;27.92;22.77;;;;;;;11.47;75.06;101259.19;5069993;28;20032;-87
2022/06/01 02:23:34;;;;;;;27.15;20.20;;;;;;;11.31;75.29;101259.81;5082707;28;20115;-87
2022/06/01 02:26:00;;;;;;;28.65;22.27;;;;;;;11.27;75.86;101260.81;5083208;28;20382;-87
2022/06/01 02:28:26;;;;;;;29.27;21.92;;;;;;;11.29;75.58;101272.25;5068183;28;20132;-87
2022/06/01 02:30:54;;;;;;;28.00;21.45;;;;;;;11.24;75.57;101272.41;5068267;28;20016;-87
2022/06/01 02:33:34;;;;;;;30.73;23.45;;;;;;;11.19;74.76;101261.97;5085065;28;20649;-87
2022/06/01 02:36:04;;;;;;;27.23;21.63;;;;;;;11.12;76.25;101263.09;5096641;28;20114;-87
2022/06/01 02:38:35;;;;;;;30.83;23.38;;;;;;;11.10;76.50;101269.38;5088372;28;20046;-87
2022/06/01 02:41:01;;;;;;;31.10;22.03;;;;;;;11.11;75.63;101265.81;5072090;28;20479;-87
2022/06/01 02:43:26;;;;;;;34.17;23.23;;;;;;;11.12;75.83;101262.25;5086514;28;20028;-87
2022/06/01 02:45:52;;;;;;;28.10;22.45;;;;;;;11.09;76.00;101265.00;5087603;28;20032;-87
2022/06/01 02:48:18;;;;;;;28.90;21.95;;;;;;;11.05;75.17;101261.63;5071123;28;20707;-87
2022/06/01 02:50:43;;;;;;;30.45;22.58;;;;;;;11.02;76.07;101267.00;5089035;28;20459;-87
2022/06/01 02:53:09;;;;;;;30.13;22.10;;;;;;;11.01;75.49;101264.44;5086779;28;20072;-87
2022/06/01 02:55:35;;;;;;;28.23;21.67;;;;;;;10.92;75.90;101255.88;5089316;28;20403;-87
2022/06/01 02:58:01;;;;;;;29.52;21.83;;;;;;;10.88;75.53;101262.19;5085192;28;20027;-87
2022/06/01 03:00:34;;;;;;;30.50;22.52;;;;;;;10.86;75.79;101263.16;5066269;28;20333;-87
2022/06/01 03:03:00;;;;;;;32.95;23.40;;;;;;;10.83;75.80;101271.22;5080960;28;20032;-87
2022/06/01 03:05:30;;;;;;;30.98;23.40;;;;;;;10.78;75.90;101255.50;5068277;28;20133;-88
2022/06/01 03:07:56;;;;;;;30.38;22.40;;;;;;;10.66;76.36;101263.84;5090181;28;20376;-87
2022/06/01 03:10:22;;;;;;;28.35;20.67;;;;;;;10.63;74.72;101261.28;5090996;28;20105;-87
2022/06/01 03:12:48;;;;;;;27.45;20.45;;;;;;;10.60;75.77;101264.91;5067372;28;21594;-87
2022/06/01 03:15:16;;;;;;;28.50;20.75;;;;;;;10.64;75.52;101273.63;5083599;28;20056;-87
2022/06/01 03:17:43;;;;;;;30.27;22.45;;;;;;;10.59;75.92;101265.84;5060356;28;20028;-87
2022/06/01 03:20:09;;;;;;;29.52;21.10;;;;;;;10.55;75.38;101264.22;5073411;28;20035;-87
2022/06/01 03:22:36;;;;;;;31.27;21.67;;;;;;;10.48;75.88;101266.16;5090698;28;20046;-87
2022/06/01 03:25:07;;;;;;;26.30;19.63;;;;;;;10.39;76.04;101262.97;5093763;28;20024;-87
2022/06/01 03:27:32;;;;;;;27.33;19.90;;;;;;;10.37;75.88;101268.31;5084298;28;20024;-87
2022/06/01 03:29:58;;;;;;;29.10;21.40;;;;;;;10.33;75.99;101266.69;5069946;28;20081;-87
2022/06/01 03:32:23;;;;;;;30.77;20.80;;;;;;;10.23;76.01;101266.06;5069150;28;20042;-87
2022/06/01 03:34:48;;;;;;;27.15;20.05;;;;;;;10.26;76.86;101264.28;5084076;28;20509;-87
2022/06/01 03:37:14;;;;;;;28.60;19.73;;;;;;;10.22;76.53;101274.06;5071000;28;20044;-87
2022/06/01 03:39:39;;;;;;;28.88;19.58;;;;;;;10.19;76.28;101266.22;5085011;28;20020;-86
2022/06/01 03:42:05;;;;;;;24.33;18.23;;;;;;;10.24;75.90;101269.63;5078515;28;20099;-86
2022/06/01 03:47:14;;;;;;;27.08;19.38;;;;;;;10.29;75.97;101269.47;5082019;28;20039;-87
2022/06/01 03:49:40;;;;;;;28.23;19.60;;;;;;;10.29;75.87;101266.81;5072591;28;20403;-87
2022/06/01 03:52:06;;;;;;;25.42;18.85;;;;;;;10.32;75.94;101277.31;5065866;28;20063;-87
2022/06/01 03:54:32;;;;;;;23.88;17.67;;;;;;;10.28;75.83;101273.03;5069701;28;20518;-86
2022/06/01 03:56:58;;;;;;;22.70;17.45;;;;;;;10.30;76.80;101274.69;5067883;28;20055;-86
2022/06/01 03:59:23;;;;;;;24.40;18.75;;;;;;;10.28;75.30;101265.09;5067909;28;20081;-87
2022/06/01 04:01:48;;;;;;;24.70;17.65;;;;;;;10.35;75.89;101279.84;5066181;28;20222;-86
2022/06/01 04:04:14;;;;;;;24.83;17.50;;;;;;;10.31;75.98;101283.53;5057739;28;20468;-87
2022/06/01 04:06:39;;;;;;;22.77;17.25;;;;;;;10.28;75.57;101288.88;5068804;28;20051;-86
2022/06/01 04:09:05;;;;;;;24.70;17.98;;;;;;;10.26;76.27;101275.72;5065927;28;20017;-86
2022/06/01 04:11:30;;;;;;;29.77;18.38;;;;;;;10.27;76.00;101281.88;5065206;28;20044;-87
2022/06/01 04:13:55;;;;;;;26.95;18.45;;;;;;;10.31;76.11;101283.53;5061431;28;20023;-86
2022/06/01 04:16:20;;;;;;;22.63;17.00;;;;;;;10.33;75.51;101293.09;5063689;28;20476;-86
2022/06/01 04:18:46;;;;;;;27.17;17.90;;;;;;;10.34;76.27;101286.03;5064614;28;20115;-87
2022/06/01 04:21:14;;;;;;;24.88;16.73;;;;;;;10.38;75.76;101295.59;5068599;28;20391;-86
2022/06/01 04:23:39;;;;;;;28.02;17.75;;;;;;;10.36;76.10;101286.88;5062657;28;20039;-86
2022/06/01 04:26:05;;;;;;;25.17;17.23;;;;;;;10.33;75.67;101282.53;5078184;28;20025;-86
2022/06/01 04:28:30;;;;;;;23.92;16.42;;;;;;;10.35;75.71;101287.75;5068218;28;20047;-86
2022/06/01 04:30:55;;;;;;;24.98;16.70;;;;;;;10.35;75.95;101286.00;5065727;28;20387;-86
2022/06/01 04:33:21;;;;;;;24.02;16.55;;;;;;;10.33;75.80;101286.97;5066522;28;20077;-86
2022/06/01 04:35:46;;;;;;;22.23;16.80;;;;;;;10.23;76.73;101287.22;5064142;28;20024;-86
2022/06/01 04:38:14;;;;;;;26.52;17.50;;;;;;;10.16;77.30;101275.09;5064698;28;20119;-86
2022/06/01 04:40:48;;;;;;;24.77;16.85;;;;;;;10.25;76.20;101284.56;5067047;28;20032;-86
2022/06/01 04:43:20;;;;;;;24.20;16.42;;;;;;;10.33;75.87;101289.59;5065002;28;20032;-86
2022/06/01 04:45:45;;;;;;;23.50;17.00;;;;;;;10.37;76.21;101284.16;5069725;28;20028;-86
2022/06/01 04:48:11;;;;;;;25.67;17.77;;;;;;;10.44;76.02;101293.66;5064229;28;20039;-86
2022/06/01 04:50:42;;;;;;;20.73;15.55;;;;;;;10.43;75.98;101291.88;5067911;28;20046;-87
2022/06/01 04:53:15;;;;;;;23.75;16.67;;;;;;;10.55;76.53;101293.28;5062790;28;20413;-87
2022/06/01 04:55:42;;;;;;;24.08;16.95;;;;;;;10.62;76.44;101289.50;5057186;28;20411;-86
2022/06/01 04:58:09;;;;;;;25.13;16.42;;;;;;;10.71;76.85;101296.28;5065467;28;20608;-86
2022/06/01 05:00:34;;;;;;;21.38;16.77;;;;;;;10.80;76.57;101292.47;5063736;28;20447;-86
2022/06/01 05:03:00;;;;;;;20.83;15.60;;;;;;;10.75;76.19;101289.97;5063538;28;20122;-87
2022/06/01 05:05:27;;;;;;;21.92;15.70;;;;;;;10.77;75.94;101298.75;5074170;28;20028;-86
2022/06/01 05:07:52;;;;;;;25.27;16.10;;;;;;;10.80;76.39;101300.41;5059973;28;20048;-87
2022/06/01 05:10:21;;;;;;;22.55;14.70;;;;;;;10.82;76.36;101291.50;5077652;28;20056;-87
2022/06/01 05:12:46;;;;;;;24.42;15.48;;;;;;;10.76;76.54;101291.69;5058083;28;20028;-87
2022/06/01 05:15:11;;;;;;;22.35;15.35;;;;;;;10.69;76.97;101287.53;5066609;28;20097;-87
2022/06/01 05:17:37;;;;;;;22.48;15.93;;;;;;;10.73;76.95;101297.97;5066287;28;20052;-86
2022/06/01 05:20:02;;;;;;;25.08;16.13;;;;;;;10.71;77.60;101289.19;5058028;28;20511;-86
2022/06/01 05:22:28;;;;;;;22.73;15.85;;;;;;;10.78;77.25;101289.03;5066254;28;20032;-87
2022/06/01 05:24:53;;;;;;;21.15;14.63;;;;;;;10.76;77.59;101291.69;5080664;28;20044;-86
2022/06/01 05:27:18;;;;;;;27.58;15.55;;;;;;;10.80;77.36;101285.38;5065631;28;20033;-87
2022/06/01 05:29:43;;;;;;;18.85;14.57;;;;;;;10.92;77.51;101289.41;5063182;28;20361;-87
2022/06/01 05:32:12;;;;;;;22.38;14.45;;;;;;;10.94;76.90;101291.06;5055654;28;20038;-87
2022/06/01 05:34:38;;;;;;;21.55;14.70;;;;;;;10.95;77.52;101298.09;5062333;28;20489;-87
2022/06/01 05:37:03;;;;;;;24.17;13.30;;;;;;;11.01;76.99;101302.31;5064578;28;20111;-87
2022/06/01 05:39:29;;;;;;;24.02;14.70;;;;;;;11.08;77.03;101298.53;5063429;28;20047;-87
2022/06/01 05:41:54;;;;;;;21.15;13.45;;;;;;;11.13;77.31;101290.44;5060719;28;20519;-86
2022/06/01 05:44:20;;;;;;;23.25;14.63;;;;;;;11.21;77.60;101291.88;5064063;28;20020;-86
2022/06/01 05:46:45;;;;;;;21.55;14.50;;;;;;;11.29;76.95;101299.56;5061449;28;20023;-87
2022/06/01 05:49:13;;;;;;;20.65;14.40;;;;;;;11.32;77.22;101295.94;5062582;28;20507;-87
2022/06/01 05:51:38;;;;;;;22.35;14.30;;;;;;;11.38;77.13;101301.88;5062202;28;20048;-87
2022/06/01 05:54:03;;;;;;;20.67;13.65;;;;;;;11.46;76.86;101296.28;5051850;28;20114;-87
2022/06/01 05:56:29;;;;;;;17.75;14.05;;;;;;;11.49;77.66;101301.50;5063578;28;20024;-88
2022/06/01 05:58:54;;;;;;;24.73;14.98;;;;;;;11.55;77.18;101298.59;5061355;28;20034;-87
2022/06/01 06:01:23;;;;;;;19.10;14.00;;;;;;;11.71;76.99;101306.88;5058431;28;20286;-87
2022/06/01 06:03:51;;;;;;;22.15;13.30;;;;;;;11.83;76.63;101303.78;5059495;28;20028;-86
2022/06/01 06:06:17;;;;;;;20.35;13.88;;;;;;;11.97;76.28;101297.94;5056594;28;20021;-87
2022/06/01 06:08:51;;;;;;;19.17;13.05;;;;;;;12.13;75.46;101312.34;5063992;28;20046;-87
2022/06/01 06:11:17;;;;;;;20.50;13.68;;;;;;;12.22;75.91;101305.81;5067589;28;20039;-86
2022/06/01 06:13:43;;;;;;;21.05;13.52;;;;;;;12.37;75.46;101315.81;5064461;28;20024;-86
2022/06/01 06:16:08;;;;;;;22.77;13.80;;;;;;;12.50;74.89;101313.53;5065871;28;20024;-87
2022/06/01 06:18:35;;;;;;;25.95;13.15;;;;;;;12.64;74.75;101321.78;5063232;28;20025;-87
2022/06/01 06:21:00;;;;;;;20.70;12.98;;;;;;;12.75;74.69;101308.94;5066863;28;20036;-88
2022/06/01 06:23:26;;;;;;;15.95;11.68;;;;;;;12.94;73.67;101322.28;5066761;28;20471;-87
2022/06/01 06:25:51;;;;;;;19.67;12.45;;;;;;;13.05;73.53;101320.97;5068582;28;20361;-87
2022/06/01 06:28:17;;;;;;;18.77;13.02;;;;;;;13.14;73.64;101318.78;5069437;28;20039;-88
2022/06/01 06:30:43;;;;;;;14.02;10.98;;;;;;;13.23;72.82;101321.06;5070416;28;20138;-87
2022/06/01 06:33:08;;;;;;;14.75;11.10;;;;;;;13.27;73.14;101320.00;5071272;28;20032;-88
2022/06/01 06:35:34;;;;;;;16.42;11.18;;;;;;;13.32;72.48;101324.25;5068631;28;20032;-88
2022/06/01 06:37:59;;;;;;;19.52;11.63;;;;;;;13.50;72.25;101326.97;5065705;28;20506;-88
2022/06/01 06:40:26;;;;;;;16.52;11.20;;;;;;;13.61;71.77;101333.59;5066292;28;20060;-88
2022/06/01 06:42:53;;;;;;;17.10;11.35;;;;;;;13.68;71.24;101343.03;5069672;28;20116;-88
2022/06/01 06:45:19;;;;;;;16.10;11.63;;;;;;;13.74;72.48;101346.25;5065499;28;20062;-88
2022/06/01 06:47:45;;;;;;;14.77;10.15;;;;;;;13.84;70.93;101338.72;5068584;28;20609;-87
2022/06/01 06:50:12;;;;;;;18.88;10.07;;;;;;;13.92;70.93;101354.31;5071170;28;20035;-88
2022/06/01 06:52:38;;;;;;;16.38;10.10;;;;;;;14.06;70.59;101357.22;5067558;28;20071;-87
2022/06/01 06:55:05;;;;;;;14.02;9.48;;;;;;;14.36;69.58;101364.66;5064371;28;20037;-88
2022/06/01 06:57:30;;;;;;;13.00;9.48;;;;;;;14.51;69.43;101353.34;5067857;28;20035;-88
2022/06/01 06:59:56;;;;;;;13.55;10.38;;;;;;;14.58;68.65;101354.75;5069206;28;20028;-88
2022/06/01 07:02:22;;;;;;;12.55;9.73;;;;;;;14.58;69.44;101359.22;5069195;28;20577;-87
2022/06/01 07:04:47;;;;;;;11.98;8.85;;;;;;;14.60;68.95;101363.56;5067997;28;20810;-88
2022/06/01 07:07:14;;;;;;;17.75;10.35;;;;;;;14.71;68.27;101368.34;5066338;28;20354;-87
2022/06/01 07:09:39;;;;;;;15.73;10.02;;;;;;;14.87;68.69;101368.44;5068768;28;20082;-88
2022/06/01 07:12:05;;;;;;;10.82;8.48;;;;;;;14.61;67.36;101356.44;5067933;28;20029;-88
2022/06/01 07:14:31;;;;;;;13.15;9.27;;;;;;;14.68;68.48;101366.69;5072059;28;20028;-87
2022/06/01 07:17:00;;;;;;;12.63;9.52;;;;;;;14.87;68.32;101360.44;5062977;28;20035;-88
2022/06/01 07:19:26;;;;;;;14.98;9.10;;;;;;;14.85;67.95;101362.34;5069702;28;20032;-88
2022/06/01 07:21:51;;;;;;;11.40;9.15;;;;;;;14.90;69.80;101363.81;5068961;28;20194;-88
2022/06/01 07:24:17;;;;;;;11.52;9.20;;;;;;;15.15;68.25;101360.78;5064716;28;20472;-89
2022/06/01 07:26:44;;;;;;;12.93;8.00;;;;;;;15.35;65.26;101366.91;5067758;28;20036;-87
2022/06/01 07:29:10;;;;;;;12.18;9.55;;;;;;;15.72;64.26;101356.06;5065504;28;20040;-88
2022/06/01 07:31:37;;;;;;;13.23;9.05;;;;;;;16.21;63.16;101366.72;5068445;28;20025;-88
2022/06/01 07:34:03;;;;;;;11.50;8.80;;;;;;;16.43;62.22;101365.53;5066392;28;20036;-88
2022/06/01 07:36:30;;;;;;;11.15;7.88;;;;;;;17.06;60.59;101363.66;5084162;28;20383;-88
2022/06/01 07:44:33;;;;;;;9.73;8.32;;;;;;;17.29;59.28;101378.31;5067212;28;20123;-89
2022/06/01 07:46:58;;;;;;;9.10;7.78;;;;;;;17.39;58.01;101372.44;5065299;28;20115;-88
2022/06/01 07:49:25;;;;;;;12.93;8.23;;;;;;;17.56;57.47;101362.44;5064196;28;20037;-88
2022/06/01 07:51:51;;;;;;;9.65;7.65;;;;;;;18.51;55.09;101369.00;5072318;28;20581;-88
2022/06/01 07:54:17;;;;;;;9.98;7.40;;;;;;;19.24;52.05;101358.78;5089341;28;20038;-89
2022/06/01 07:56:42;;;;;;;9.82;6.25;;;;;;;19.60;50.15;101363.47;5084494;28;20115;-90
2022/06/01 07:59:08;;;;;;;9.15;6.90;;;;;;;19.02;51.31;101370.09;5087853;28;20127;-89
2022/06/01 08:01:35;;;;;;;10.63;6.20;;;;;;;19.11;51.63;101365.94;5069665;28;20012;-89
2022/06/01 08:04:02;;;;;;;10.15;7.05;;;;;;;19.28;51.27;101373.69;5067584;28;20020;-90
2022/06/01 08:06:28;;;;;;;10.18;6.82;;;;;;;19.29;52.11;101367.38;5070770;28;20035;-88
2022/06/01 08:08:54;;;;;;;8.93;6.13;;;;;;;19.25;50.59;101373.91;5070372;28;20029;-89
2022/06/01 08:11:20;;;;;;;8.30;6.63;;;;;;;19.01;50.40;101375.56;5082145;28;20035;-90
2022/06/01 08:13:45;;;;;;;7.35;6.15;;;;;;;19.66;49.57;101369.38;5081886;28;20101;-89
2022/06/01 08:16:11;;;;;;;5.95;5.40;;;;;;;19.38;48.32;101371.25;5068136;28;20419;-90
2022/06/01 08:18:37;;;;;;;10.68;6.93;;;;;;;19.67;48.03;101368.41;5088406;28;20035;-91
2022/06/01 08:21:03;;;;;;;7.80;6.25;;;;;;;20.42;47.21;101381.81;5087415;28;20551;-88
2022/06/01 08:23:31;;;;;;;6.57;5.82;;;;;;;20.29;46.76;101374.66;5089170;28;20490;-89
2022/06/01 08:25:56;;;;;;;9.52;6.40;;;;;;;21.09;45.44;101371.47;5066308;28;20376;-88
2022/06/01 08:28:22;;;;;;;7.38;6.68;;;;;;;21.68;46.20;101375.91;5089203;28;20023;-89
2022/06/01 08:30:49;;;;;;;7.72;5.93;;;;;;;22.40;41.25;101376.44;5086546;28;20545;-88
2022/06/01 08:33:16;;;;;;;6.47;5.80;;;;;;;22.57;41.68;101366.97;5067565;28;20387;-88
2022/06/01 08:35:45;;;;;;;8.50;6.05;;;;;;;22.75;40.24;101364.59;5084775;28;20498;-88
2022/06/01 08:38:11;;;;;;;8.85;6.50;;;;;;;22.34;40.88;101360.78;5065177;28;20024;-88
2022/06/01 08:40:56;;;;;;;6.85;6.13;;;;;;;21.63;42.89;101357.44;5084025;28;20541;-89
2022/06/01 08:43:28;;;;;;;9.23;5.75;;;;;;;21.51;44.53;101345.81;5086295;28;20498;-89
2022/06/01 08:45:58;;;;;;;6.25;5.65;;;;;;;22.38;41.11;101357.72;5063214;28;20055;-88
2022/06/01 08:48:34;;;;;;;5.88;5.00;;;;;;;22.72;40.77;101357.63;5068396;28;20040;-88
2022/06/01 08:51:00;;;;;;;5.05;4.55;;;;;;;21.76;38.67;101358.19;5084419;28;20028;-88
2022/06/01 08:53:25;;;;;;;5.68;3.92;;;;;;;20.87;43.77;101372.22;5081566;28;20044;-88
2022/06/01 08:55:55;;;;;;;6.03;4.18;;;;;;;20.68;40.20;101372.75;5082455;28;20032;-88
2022/06/01 08:58:36;;;;;;;4.93;4.38;;;;;;;20.56;43.43;101373.63;5085636;28;20028;-88
2022/06/01 09:01:12;;;;;;;4.55;4.15;;;;;;;21.40;41.47;101380.75;5083189;28;20410;-88
2022/06/01 09:03:52;;;;;;;4.30;3.90;;;;;;;21.58;41.66;101368.56;5081532;28;20074;-87
2022/06/01 09:06:26;;;;;;;5.63;4.45;;;;;;;21.21;41.00;101383.97;5085049;28;20032;-88
2022/06/01 09:09:30;;;;;;;5.20;4.70;;;;;;;20.84;43.63;101383.19;5083566;28;20030;-88
2022/06/01 09:11:56;;;;;;;5.78;4.90;;;;;;;20.26;44.45;101365.97;5043086;28;20128;-88
2022/06/01 09:14:33;;;;;;;5.53;4.95;;;;;;;20.21;45.29;101368.13;5080578;28;20025;-88
2022/06/01 09:16:59;;;;;;;5.72;4.97;;;;;;;19.58;44.44;101360.00;5081396;28;20031;-88
2022/06/01 09:22:37;;;;;;;4.22;3.85;;;;;;;19.69;42.97;101372.69;5069518;28;20037;-88
2022/06/01 09:25:02;;;;;;;6.40;4.65;;;;;;;19.54;44.82;101371.91;5077893;28;20122;-89
2022/06/01 09:27:38;;;;;;;5.85;4.22;;;;;;;19.55;45.06;101375.44;5081321;28;20050;-90
2022/06/01 09:30:22;;;;;;;6.45;4.72;;;;;;;19.44;45.48;101369.94;5068576;28;20040;-89
2022/06/01 09:33:04;;;;;;;6.40;4.95;;;;;;;19.27;46.17;101382.72;5077989;28;20110;-90
2022/06/01 09:35:36;;;;;;;4.93;4.32;;;;;;;19.27;46.35;101398.78;5066036;28;20020;-90
2022/06/01 09:38:10;;;;;;;4.25;3.58;;;;;;;18.58;47.96;101399.78;5065626;28;20024;-90
2022/06/01 09:40:36;;;;;;;3.45;3.15;;;;;;;17.93;49.78;101394.13;5078500;28;20090;-89
2022/06/01 09:43:03;;;;;;;3.88;2.88;;;;;;;17.32;50.75;101406.69;5078842;28;20031;-88
2022/06/01 09:45:47;;;;;;;2.60;2.17;;;;;;;16.75;53.00;101387.78;5061610;28;20503;-88
2022/06/01 09:48:22;;;;;;;3.10;2.80;;;;;;;16.42;53.54;101396.72;5083362;28;20138;-88
2022/06/01 09:51:00;;;;;;;3.10;2.80;;;;;;;16.40;55.51;101392.41;5088195;28;20032;-87
2022/06/01 09:53:33;;;;;;;2.60;2.40;;;;;;;16.41;55.17;101400.31;5083554;28;20040;-87
2022/06/01 09:56:01;;;;;;;2.40;2.20;;;;;;;16.40;56.39;101400.41;5069380;28;20020;-87
2022/06/01 10:07:04;;;;;;;5.75;3.10;;;;;;;16.22;58.22;101423.63;5083282;28;20101;-87
2022/06/01 10:09:32;;;;;;;3.50;3.20;;;;;;;16.16;56.76;101427.47;5081728;28;20136;-86
2022/06/01 10:11:57;;;;;;;4.30;3.40;;;;;;;15.98;57.76;101425.81;5068313;28;20024;-88
2022/06/01 10:14:53;;;;;;;5.18;4.03;;;;;;;15.56;59.83;101440.41;5086014;28;20032;-87
2022/06/01 10:17:33;;;;;;;8.65;4.65;;;;;;;15.02;62.52;101461.75;5077102;28;20020;-87
2022/06/01 10:20:13;;;;;;;5.90;5.05;;;;;;;14.79;63.12;101478.84;5067492;28;20542;-86
2022/06/01 10:22:56;;;;;;;9.88;5.60;;;;;;;14.60;64.80;101469.13;5080226;28;20059;-87
2022/06/01 10:25:29;;;;;;;9.05;6.50;;;;;;;14.30;66.76;101473.09;5085366;28;20036;-85
2022/06/01 10:27:59;;;;;;;7.35;6.47;;;;;;;14.04;68.03;101468.97;5060281;28;20035;-85
2022/06/01 10:30:43;;;;;;;9.15;6.75;;;;;;;13.97;67.72;101486.09;5078644;28;20031;-85
2022/06/01 10:33:22;;;;;;;9.18;6.30;;;;;;;13.87;67.06;101491.88;5084916;28;20210;-85
2022/06/01 10:36:05;;;;;;;10.23;7.03;;;;;;;13.64;67.80;101485.75;5085659;28;20024;-86
2022/06/01 10:38:46;;;;;;;4.05;3.65;;;;;;;13.58;64.72;101479.84;5084593;28;20463;-86
2022/06/01 10:41:21;;;;;;;4.15;3.53;;;;;;;13.55;65.21;101472.88;5089109;28;20495;-85
2022/06/01 10:44:00;;;;;;;3.85;3.55;;;;;;;13.61;65.46;101456.66;5079121;28;20027;-85
2022/06/01 10:46:50;;;;;;;4.72;4.28;;;;;;;13.79;66.56;101442.56;5083812;28;20035;-85
2022/06/01 10:49:33;;;;;;;5.20;4.60;;;;;;;14.15;64.96;101451.66;5082579;28;20541;-86
2022/06/01 10:52:25;;;;;;;4.70;4.30;;;;;;;14.53;66.09;101449.91;5082364;28;20044;-86
2022/06/01 10:55:12;;;;;;;5.05;3.90;;;;;;;14.93;64.42;101438.22;5066971;28;20032;-85
2022/06/01 10:57:41;;;;;;;4.80;3.70;;;;;;;15.17;63.81;101437.97;5066571;28;20028;-85
2022/06/01 11:00:11;;;;;;;3.63;3.20;;;;;;;15.56;62.35;101446.59;5088674;28;20490;-85
2022/06/01 11:03:07;;;;;;;4.43;3.90;;;;;;;16.25;63.12;101443.00;5085577;28;20059;-85
2022/06/01 11:06:04;;;;;;;2.95;2.65;;;;;;;16.72;59.68;101442.19;5088902;28;20035;-86
2022/06/01 11:08:43;;;;;;;4.22;3.38;;;;;;;17.21;61.64;101444.75;5068290;28;20039;-87
2022/06/01 11:11:36;;;;;;;4.05;3.60;;;;;;;17.51;58.49;101447.41;5078803;28;20048;-87
2022/06/01 11:14:40;;;;;;;3.88;3.50;;;;;;;17.53;57.83;101445.53;5068097;28;20039;-86
2022/06/01 11:17:16;;;;;;;5.13;4.00;;;;;;;17.47;57.43;101437.00;5026031;28;20538;-85
2022/06/01 11:20:22;;;;;;;4.53;4.18;;;;;;;17.38;58.42;101433.06;5084114;28;20020;-85
2022/06/01 11:23:32;;;;;;;6.35;5.03;;;;;;;17.35;58.54;101438.59;5069322;28;20039;-86
2022/06/01 11:26:11;;;;;;;6.32;5.38;;;;;;;17.38;59.97;101441.06;5046114;28;20043;-85
2022/06/01 11:29:08;;;;;;;6.03;5.18;;;;;;;17.21;58.38;101436.75;5083319;28;20032;-85
2022/06/01 11:31:36;;;;;;;7.00;6.22;;;;;;;17.28;62.47;101440.75;5087012;28;20491;-85
2022/06/01 11:34:05;;;;;;;5.43;4.93;;;;;;;17.63;59.96;101450.34;5084860;28;20020;-86
2022/06/01 11:36:44;;;;;;;5.22;4.25;;;;;;;17.92;56.49;101454.81;5064566;28;20096;-86
2022/06/01 11:39:37;;;;;;;4.28;3.97;;;;;;;18.11;56.02;101449.19;5084581;28;20032;-86
2022/06/01 11:42:05;;;;;;;;;;;;;;;18.67;56.28;101457.25;5059577;28;20071;-87
2022/06/01 11:44:37;;;;;;;5.22;4.72;;;;;;;19.22;52.97;101461.72;5086907;28;19916;-86
2022/06/01 11:47:09;;;;;;;3.20;3.00;;;;;;;19.71;47.58;101458.44;5087874;28;20020;-86
2022/06/01 11:49:40;;;;;;;3.70;3.35;;;;;;;20.01;50.02;101461.69;5088474;28;20498;-87
2022/06/01 11:52:24;;;;;;;3.03;2.83;;;;;;;20.35;48.97;101461.97;5081326;28;20051;-87
2022/06/01 11:55:20;;;;;;;2.90;2.70;;;;;;;20.34;48.47;101457.59;5065926;28;20072;-86